createdAt,value
2023-03-29T00:03:06.474Z,-128.00
2023-03-29T00:06:14.882Z,-128.00
2023-03-29T00:09:38.901Z,-128.00
2023-03-29T00:12:44.294Z,-128.00
2023-03-29T00:15:55.438Z,-128.00
2023-03-29T00:19:26.066Z,-128.00
2023-03-29T00:22:33.359Z,-128.00
2023-03-29T00:25:28.844Z,-128.00
2023-03-29T00:28:31.779Z,-128.00
2023-03-29T00:31:23.478Z,-128.00
2023-03-29T00:34:10.198Z,-128.00
2023-03-29T00:37:08.137Z,-128.00
2023-03-29T00:40:15.804Z,-128.00
2023-03-29T00:43:35.300Z,-128.00
2023-03-29T00:46:42.978Z,-128.00
2023-03-29T00:49:59.674Z,-128.00
2023-03-29T00:53:26.562Z,-128.00
2023-03-29T00:56:53.595Z,-128.00
2023-03-29T01:00:09.663Z,-128.00
2023-03-29T01:07:42.174Z,-128.00
2023-03-29T01:11:34.068Z,-128.00
2023-03-29T01:15:36.209Z,-128.00
2023-03-29T01:19:30.055Z,-128.00
2023-03-29T01:23:38.242Z,-128.00
2023-03-29T01:27:49.165Z,-128.00
2023-03-29T01:31:37.232Z,-128.00
2023-03-29T01:35:45.073Z,-128.00
2023-03-29T01:39:41.192Z,-128.00
2023-03-29T01:43:46.076Z,-128.00
2023-03-29T01:47:48.215Z,-128.00
2023-03-29T01:51:30.038Z,-128.00
2023-03-29T01:55:32.144Z,-128.00
2023-03-29T01:59:27.039Z,-128.00
2023-03-29T02:03:26.242Z,-128.00
2023-03-29T02:07:22.143Z,-128.00
2023-03-29T02:11:15.183Z,-128.00
2023-03-29T02:15:11.059Z,-128.00
2023-03-29T02:19:03.146Z,-128.00
2023-03-29T02:23:13.113Z,-128.00
2023-03-29T02:27:14.237Z,-128.00
2023-03-29T02:30:56.054Z,-128.00
2023-03-29T02:34:56.095Z,-128.00
2023-03-29T02:38:52.089Z,-128.00
2023-03-29T02:42:57.092Z,-128.00
2023-03-29T02:46:48.087Z,-128.00
2023-03-29T02:50:55.141Z,-128.00
2023-03-29T02:55:02.046Z,-128.00
2023-03-29T02:58:54.134Z,-128.00
2023-03-29T03:03:01.325Z,-128.00
2023-03-29T03:07:03.254Z,-128.00
2023-03-29T03:10:47.566Z,-128.00
2023-03-29T03:15:01.227Z,-128.00
2023-03-29T03:18:55.028Z,-128.00
2023-03-29T03:22:50.121Z,-128.00
2023-03-29T03:26:46.017Z,-128.00
2023-03-29T03:30:39.179Z,-128.00
2023-03-29T03:34:34.959Z,-128.00
2023-03-29T03:38:27.190Z,-128.00
2023-03-29T03:42:24.038Z,-128.00
2023-03-29T03:46:22.169Z,-128.00
2023-03-29T03:50:31.030Z,-128.00
2023-03-29T03:54:24.134Z,-128.00
2023-03-29T03:58:24.997Z,-128.00
2023-03-29T04:02:33.244Z,-128.00
2023-03-29T04:06:34.946Z,-128.00
2023-03-29T04:10:31.097Z,-128.00
2023-03-29T04:14:24.008Z,-128.00
2023-03-29T04:18:31.286Z,-128.00
2023-03-29T04:22:29.991Z,-128.00
2023-03-29T04:26:37.165Z,-128.00
2023-03-29T04:30:41.955Z,-128.00
2023-03-29T04:38:40.070Z,-128.00
2023-03-29T04:42:41.994Z,-128.00
2023-03-29T04:50:50.115Z,-128.00
2023-03-29T04:54:48.013Z,-128.00
2023-03-29T04:58:50.119Z,-128.00
2023-03-29T05:02:43.044Z,-128.00
2023-03-29T05:06:21.130Z,-128.00
2023-03-29T05:10:17.291Z,-128.00
2023-03-29T05:14:11.140Z,-128.00
2023-03-29T05:18:10.020Z,-128.00
2023-03-29T05:26:07.150Z,-128.00
2023-03-29T05:30:08.025Z,-128.00
2023-03-29T05:38:22.123Z,-128.00
2023-03-29T05:42:15.928Z,-128.00
2023-03-29T05:46:09.166Z,-128.00
2023-03-29T05:50:01.951Z,-128.00
2023-03-29T05:53:52.131Z,-128.00
2023-03-29T05:57:44.920Z,-128.00
2023-03-29T06:01:41.149Z,-128.00
2023-03-29T06:05:35.928Z,-128.00
2023-03-29T06:09:28.117Z,-128.00
2023-03-29T06:13:23.942Z,-128.00
2023-03-29T06:17:15.153Z,-128.00
2023-03-29T06:21:13.962Z,-128.00
2023-03-29T06:25:07.139Z,-128.00
2023-03-29T06:28:58.984Z,-128.00
2023-03-29T06:32:57.171Z,-128.00
2023-03-29T06:37:13.942Z,-128.00
2023-03-29T06:56:57.162Z,0.03
2023-03-29T07:01:20.597Z,0.07
2023-03-29T07:05:50.829Z,0.12
2023-03-29T07:10:06.157Z,0.19
2023-03-29T07:14:10.303Z,0.29
2023-03-29T07:18:10.203Z,0.57
2023-03-29T07:22:11.400Z,0.75
2023-03-29T07:27:56.939Z,0.92
2023-03-29T07:31:56.717Z,1.06
2023-03-29T07:36:02.873Z,1.40
2023-03-29T07:40:02.737Z,1.63
2023-03-29T07:44:36.523Z,1.94
2023-03-29T07:48:31.419Z,2.64
2023-03-29T07:52:28.540Z,3.46
2023-03-29T07:56:15.426Z,4.38
2023-03-29T08:00:52.136Z,4.81
2023-03-29T08:04:50.883Z,5.34
2023-03-29T08:09:03.038Z,5.67
2023-03-29T08:12:54.883Z,6.22
2023-03-29T08:16:55.117Z,6.26
2023-03-29T08:20:49.914Z,6.30
2023-03-29T08:24:44.059Z,6.64
2023-03-29T08:28:32.860Z,6.95
2023-03-29T08:32:28.183Z,7.10
2023-03-29T08:36:27.895Z,7.10
2023-03-29T08:40:54.394Z,7.42
2023-03-29T08:45:22.114Z,8.28
2023-03-29T08:49:32.273Z,8.87
2023-03-29T08:53:26.118Z,8.93
2023-03-29T08:57:26.367Z,9.82
2023-03-29T09:01:24.265Z,9.76
2023-03-29T09:05:21.252Z,9.80
2023-03-29T09:09:19.112Z,9.62
2023-03-29T09:13:41.259Z,9.44
2023-03-29T09:17:33.123Z,9.26
2023-03-29T09:21:33.370Z,9.25
2023-03-29T09:25:27.083Z,9.61
2023-03-29T09:29:28.267Z,-72.74
2023-03-29T09:33:26.059Z,-128.00
2023-03-29T09:37:26.339Z,-128.00
2023-03-29T09:41:23.078Z,-128.00
2023-03-29T09:45:23.345Z,-128.00
2023-03-29T09:49:24.116Z,-128.00
2023-03-29T09:53:21.243Z,-128.00
2023-03-29T09:57:17.117Z,-128.00
2023-03-29T10:01:15.361Z,-128.00
2023-03-29T10:05:11.097Z,-128.00
2023-03-29T10:09:15.386Z,-128.00
2023-03-29T20:32:00.812Z,1.38
2023-03-29T20:36:24.499Z,1.32
2023-03-29T20:48:46.364Z,1.11
2023-03-29T20:53:12.775Z,1.14
2023-03-29T20:57:11.897Z,1.11
2023-03-29T21:01:06.090Z,1.08
2023-03-29T21:05:07.003Z,1.05
2023-03-29T21:09:40.397Z,1.05
2023-03-29T21:13:40.363Z,1.00
2023-03-29T21:17:40.583Z,1.06
2023-03-29T21:21:40.345Z,1.16
2023-03-29T21:25:35.530Z,1.30
2023-03-29T21:29:34.404Z,1.39
2023-03-29T21:33:24.485Z,1.56
2023-03-29T21:37:27.335Z,1.73
2023-03-29T21:41:22.599Z,1.82
2023-03-29T21:45:14.382Z,1.98
2023-03-29T21:49:09.525Z,2.08
2023-03-29T21:53:01.364Z,2.16
2023-03-29T21:56:55.619Z,2.23
2023-03-29T22:00:50.360Z,2.38
2023-03-29T22:04:41.528Z,2.49
2023-03-29T22:08:34.304Z,2.61
2023-03-29T22:12:31.471Z,2.71
2023-03-29T22:16:33.369Z,2.85
2023-03-29T22:20:30.442Z,2.98
2023-03-29T22:24:22.346Z,3.12
2023-03-29T22:28:16.435Z,3.23
2023-03-29T22:32:13.399Z,3.32
2023-03-29T22:36:10.456Z,3.38
2023-03-29T22:40:03.313Z,3.44
2023-03-29T22:43:59.579Z,3.48
2023-03-29T22:47:56.358Z,3.50
2023-03-29T22:51:54.523Z,3.52
2023-03-29T22:55:49.286Z,3.57
2023-03-29T22:59:44.484Z,3.63
2023-03-29T23:03:38.332Z,3.67
2023-03-29T23:07:31.507Z,3.69
2023-03-29T23:11:26.334Z,3.75
2023-03-29T23:15:21.504Z,3.77
2023-03-29T23:19:15.345Z,3.78
2023-03-29T23:23:13.453Z,3.84
2023-03-29T23:27:08.268Z,3.90
2023-03-29T23:31:04.789Z,3.92
2023-03-29T23:34:57.286Z,3.99
2023-03-29T23:38:54.560Z,4.05
2023-03-29T23:42:46.310Z,4.10
2023-03-29T23:46:42.601Z,4.18
2023-03-29T23:50:37.257Z,4.24
2023-03-29T23:54:34.457Z,4.28
2023-03-29T23:58:31.316Z,4.32
